sensor_id;sensor_type;location;lat;lon;timestamp;pressure;altitude;pressure_sealevel;temperature;humidity
59337;BME280;45115;52.002;4.686;2023-05-17T00:00:47;102655.72;;;8.81;99.81
59337;BME280;45115;52.002;4.686;2023-05-17T00:03:13;102654.56;;;8.85;99.64
59337;BME280;45115;52.002;4.686;2023-05-17T00:05:40;102654.66;;;8.84;99.57
59337;BME280;45115;52.002;4.686;2023-05-17T00:08:08;102653.75;;;8.83;99.94
59337;BME280;45115;52.002;4.686;2023-05-17T00:10:35;102647.84;;;8.91;99.34
59337;BME280;45115;52.002;4.686;2023-05-17T00:13:01;102654.41;;;8.88;99.49
59337;BME280;45115;52.002;4.686;2023-05-17T00:15:28;102657.03;;;8.90;99.41
59337;BME280;45115;52.002;4.686;2023-05-17T00:17:55;102650.59;;;8.91;99.33
59337;BME280;45115;52.002;4.686;2023-05-17T00:20:22;102647.25;;;8.86;99.28
59337;BME280;45115;52.002;4.686;2023-05-17T00:22:49;102655.63;;;8.83;99.30
59337;BME280;45115;52.002;4.686;2023-05-17T00:25:17;102660.72;;;8.89;98.50
59337;BME280;45115;52.002;4.686;2023-05-17T00:27:43;102657.84;;;8.92;99.09
59337;BME280;45115;52.002;4.686;2023-05-17T00:30:10;102662.75;;;8.85;98.98
59337;BME280;45115;52.002;4.686;2023-05-17T00:32:37;102661.44;;;8.92;98.82
59337;BME280;45115;52.002;4.686;2023-05-17T00:35:04;102668.91;;;9.04;98.33
59337;BME280;45115;52.002;4.686;2023-05-17T00:37:31;102656.63;;;9.12;97.86
59337;BME280;45115;52.002;4.686;2023-05-17T00:39:57;102648.97;;;9.18;97.64
59337;BME280;45115;52.002;4.686;2023-05-17T00:42:25;102650.72;;;9.19;97.58
59337;BME280;45115;52.002;4.686;2023-05-17T00:44:52;102654.25;;;9.21;97.68
59337;BME280;45115;52.002;4.686;2023-05-17T00:47:18;102657.47;;;9.28;97.08
59337;BME280;45115;52.002;4.686;2023-05-17T00:49:45;102649.47;;;9.25;97.87
59337;BME280;45115;52.002;4.686;2023-05-17T00:52:12;102653.69;;;9.30;97.84
59337;BME280;45115;52.002;4.686;2023-05-17T00:54:39;102658.66;;;9.38;97.36
59337;BME280;45115;52.002;4.686;2023-05-17T00:57:06;102653.13;;;9.39;96.93
59337;BME280;45115;52.002;4.686;2023-05-17T00:59:34;102657.91;;;9.36;97.40
59337;BME280;45115;52.002;4.686;2023-05-17T01:02:02;102651.47;;;9.37;97.20
59337;BME280;45115;52.002;4.686;2023-05-17T01:04:29;102650.31;;;9.41;97.04
59337;BME280;45115;52.002;4.686;2023-05-17T01:06:56;102655.88;;;9.39;97.08
59337;BME280;45115;52.002;4.686;2023-05-17T01:09:22;102656.31;;;9.32;97.58
59337;BME280;45115;52.002;4.686;2023-05-17T01:11:53;102657.66;;;9.25;97.21
59337;BME280;45115;52.002;4.686;2023-05-17T01:14:32;102659.59;;;9.23;96.74
59337;BME280;45115;52.002;4.686;2023-05-17T01:17:06;102655.63;;;9.28;96.96
59337;BME280;45115;52.002;4.686;2023-05-17T01:19:54;102653.41;;;9.35;97.29
59337;BME280;45115;52.002;4.686;2023-05-17T01:22:30;102650.31;;;9.41;96.99
59337;BME280;45115;52.002;4.686;2023-05-17T01:25:10;102649.81;;;9.48;97.38
59337;BME280;45115;52.002;4.686;2023-05-17T01:27:42;102645.44;;;9.46;97.31
59337;BME280;45115;52.002;4.686;2023-05-17T01:30:12;102645.03;;;9.52;97.54
59337;BME280;45115;52.002;4.686;2023-05-17T01:32:40;102646.03;;;9.51;97.67
59337;BME280;45115;52.002;4.686;2023-05-17T01:35:09;102645.81;;;9.54;96.79
59337;BME280;45115;52.002;4.686;2023-05-17T01:37:36;102644.88;;;9.55;97.30
59337;BME280;45115;52.002;4.686;2023-05-17T01:40:06;102655.72;;;9.56;97.05
59337;BME280;45115;52.002;4.686;2023-05-17T01:42:36;102650.94;;;9.60;96.70
59337;BME280;45115;52.002;4.686;2023-05-17T01:45:11;102650.03;;;9.59;96.85
59337;BME280;45115;52.002;4.686;2023-05-17T01:47:44;102650.03;;;9.59;97.30
59337;BME280;45115;52.002;4.686;2023-05-17T01:50:18;102655.81;;;9.55;97.08
59337;BME280;45115;52.002;4.686;2023-05-17T01:52:49;102658.13;;;9.47;96.68
59337;BME280;45115;52.002;4.686;2023-05-17T01:55:24;102649.50;;;9.39;96.92
59337;BME280;45115;52.002;4.686;2023-05-17T01:57:53;102650.22;;;9.42;97.28
59337;BME280;45115;52.002;4.686;2023-05-17T02:00:24;102649.22;;;9.43;97.92
59337;BME280;45115;52.002;4.686;2023-05-17T02:02:50;102649.91;;;9.47;97.52
59337;BME280;45115;52.002;4.686;2023-05-17T02:05:19;102647.69;;;9.53;97.83
59337;BME280;45115;52.002;4.686;2023-05-17T02:07:46;102645.47;;;9.60;97.04
59337;BME280;45115;52.002;4.686;2023-05-17T02:10:12;102638.16;;;9.60;97.29
59337;BME280;45115;52.002;4.686;2023-05-17T02:12:42;102645.03;;;9.52;97.67
59337;BME280;45115;52.002;4.686;2023-05-17T02:15:09;102636.81;;;9.52;98.17
59337;BME280;45115;52.002;4.686;2023-05-17T02:17:39;102643.41;;;9.63;97.95
59337;BME280;45115;52.002;4.686;2023-05-17T02:20:08;102650.25;;;9.70;97.03
59337;BME280;45115;52.002;4.686;2023-05-17T02:22:36;102653.78;;;9.72;96.83
59337;BME280;45115;52.002;4.686;2023-05-17T02:25:03;102650.06;;;9.73;96.79
59337;BME280;45115;52.002;4.686;2023-05-17T02:27:31;102650.97;;;9.74;97.17
59337;BME280;45115;52.002;4.686;2023-05-17T02:29:58;102646.84;;;9.81;96.27
59337;BME280;45115;52.002;4.686;2023-05-17T02:32:26;102645.28;;;9.77;96.73
59337;BME280;45115;52.002;4.686;2023-05-17T02:34:54;102649.56;;;9.67;96.71
59337;BME280;45115;52.002;4.686;2023-05-17T02:37:22;102648.19;;;9.60;96.78
59337;BME280;45115;52.002;4.686;2023-05-17T02:39:48;102655.63;;;9.58;97.38
59337;BME280;45115;52.002;4.686;2023-05-17T02:42:15;102643.63;;;9.60;96.90
59337;BME280;45115;52.002;4.686;2023-05-17T02:44:42;102648.28;;;9.58;97.32
59337;BME280;45115;52.002;4.686;2023-05-17T02:47:08;102650.25;;;9.56;97.75
59337;BME280;45115;52.002;4.686;2023-05-17T02:49:35;102650.63;;;9.64;97.84
59337;BME280;45115;52.002;4.686;2023-05-17T02:52:04;102652.22;;;9.68;96.92
59337;BME280;45115;52.002;4.686;2023-05-17T02:54:30;102650.84;;;9.61;97.18
59337;BME280;45115;52.002;4.686;2023-05-17T02:56:58;102659.13;;;9.60;97.18
59337;BME280;45115;52.002;4.686;2023-05-17T02:59:24;102663.59;;;9.47;97.87
59337;BME280;45115;52.002;4.686;2023-05-17T03:01:51;102662.63;;;9.48;98.25
59337;BME280;45115;52.002;4.686;2023-05-17T03:04:18;102669.16;;;9.45;98.54
59337;BME280;45115;52.002;4.686;2023-05-17T03:06:45;102675.50;;;9.46;98.12
59337;BME280;45115;52.002;4.686;2023-05-17T03:09:13;102672.72;;;9.32;99.20
59337;BME280;45115;52.002;4.686;2023-05-17T03:11:40;102673.88;;;9.28;99.09
59337;BME280;45115;52.002;4.686;2023-05-17T03:14:14;102671.00;;;9.15;99.16
59337;BME280;45115;52.002;4.686;2023-05-17T03:16:41;102670.94;;;9.17;99.68
59337;BME280;45115;52.002;4.686;2023-05-17T03:19:08;102680.72;;;9.05;99.80
59337;BME280;45115;52.002;4.686;2023-05-17T03:21:35;102681.31;;;9.10;100.00
59337;BME280;45115;52.002;4.686;2023-05-17T03:24:02;102678.19;;;9.32;100.00
59337;BME280;45115;52.002;4.686;2023-05-17T03:26:30;102680.38;;;9.41;99.79
59337;BME280;45115;52.002;4.686;2023-05-17T03:28:58;102671.38;;;9.39;100.00
59337;BME280;45115;52.002;4.686;2023-05-17T03:31:25;102672.50;;;9.50;100.00
59337;BME280;45115;52.002;4.686;2023-05-17T03:33:52;102675.09;;;9.67;99.76
59337;BME280;45115;52.002;4.686;2023-05-17T03:36:19;102678.69;;;9.68;98.84
59337;BME280;45115;52.002;4.686;2023-05-17T03:38:46;102684.69;;;9.74;98.04
59337;BME280;45115;52.002;4.686;2023-05-17T03:41:12;102682.53;;;9.79;98.99
59337;BME280;45115;52.002;4.686;2023-05-17T03:43:40;102685.78;;;10.00;98.38
59337;BME280;45115;52.002;4.686;2023-05-17T03:46:10;102694.25;;;10.11;97.40
59337;BME280;45115;52.002;4.686;2023-05-17T03:48:36;102693.47;;;10.09;97.59
59337;BME280;45115;52.002;4.686;2023-05-17T03:51:04;102701.06;;;10.04;97.39
59337;BME280;45115;52.002;4.686;2023-05-17T03:53:32;102692.63;;;10.07;96.96
59337;BME280;45115;52.002;4.686;2023-05-17T03:55:59;102698.38;;;10.02;96.60
59337;BME280;45115;52.002;4.686;2023-05-17T03:58:26;102699.94;;;9.92;97.32
59337;BME280;45115;52.002;4.686;2023-05-17T04:00:54;102707.47;;;10.03;96.04
59337;BME280;45115;52.002;4.686;2023-05-17T04:03:21;102706.84;;;10.13;95.35
59337;BME280;45115;52.002;4.686;2023-05-17T04:05:47;102715.53;;;10.20;94.64
59337;BME280;45115;52.002;4.686;2023-05-17T04:08:14;102707.44;;;10.19;94.12
59337;BME280;45115;52.002;4.686;2023-05-17T04:10:41;102717.53;;;10.18;92.98
59337;BME280;45115;52.002;4.686;2023-05-17T04:13:09;102715.94;;;10.14;93.36
59337;BME280;45115;52.002;4.686;2023-05-17T04:15:37;102726.94;;;9.98;92.70
59337;BME280;45115;52.002;4.686;2023-05-17T04:18:07;102729.59;;;10.00;92.39
59337;BME280;45115;52.002;4.686;2023-05-17T04:20:33;102738.81;;;10.13;91.21
59337;BME280;45115;52.002;4.686;2023-05-17T04:23:00;102726.59;;;10.19;88.97
59337;BME280;45115;52.002;4.686;2023-05-17T04:25:29;102733.44;;;10.26;87.25
59337;BME280;45115;52.002;4.686;2023-05-17T04:27:56;102737.06;;;10.12;87.39
59337;BME280;45115;52.002;4.686;2023-05-17T04:30:23;102747.81;;;10.15;85.84
59337;BME280;45115;52.002;4.686;2023-05-17T04:32:50;102752.59;;;10.11;85.23
59337;BME280;45115;52.002;4.686;2023-05-17T04:35:18;102751.81;;;10.09;85.31
59337;BME280;45115;52.002;4.686;2023-05-17T04:37:49;102753.50;;;10.12;85.33
59337;BME280;45115;52.002;4.686;2023-05-17T04:40:19;102757.91;;;10.15;85.80
59337;BME280;45115;52.002;4.686;2023-05-17T04:42:47;102755.25;;;10.13;85.05
59337;BME280;45115;52.002;4.686;2023-05-17T04:45:13;102770.50;;;10.17;85.18
59337;BME280;45115;52.002;4.686;2023-05-17T04:47:40;102769.94;;;10.12;85.58
59337;BME280;45115;52.002;4.686;2023-05-17T04:50:08;102761.41;;;10.17;85.67
59337;BME280;45115;52.002;4.686;2023-05-17T04:52:36;102771.63;;;10.29;84.12
59337;BME280;45115;52.002;4.686;2023-05-17T04:55:03;102775.44;;;10.54;83.23
59337;BME280;45115;52.002;4.686;2023-05-17T04:57:30;102782.00;;;10.66;81.56
59337;BME280;45115;52.002;4.686;2023-05-17T05:00:00;102780.34;;;10.77;81.46
59337;BME280;45115;52.002;4.686;2023-05-17T05:02:28;102781.16;;;11.06;80.54
59337;BME280;45115;52.002;4.686;2023-05-17T05:04:55;102785.91;;;11.31;78.22
59337;BME280;45115;52.002;4.686;2023-05-17T05:07:22;102789.91;;;10.98;79.35
59337;BME280;45115;52.002;4.686;2023-05-17T05:09:50;102799.78;;;10.87;79.20
59337;BME280;45115;52.002;4.686;2023-05-17T05:12:18;102806.75;;;10.92;79.72
59337;BME280;45115;52.002;4.686;2023-05-17T05:14:45;102805.97;;;10.90;79.51
59337;BME280;45115;52.002;4.686;2023-05-17T05:17:12;102802.16;;;10.93;78.90
59337;BME280;45115;52.002;4.686;2023-05-17T05:19:40;102810.38;;;10.93;79.72
59337;BME280;45115;52.002;4.686;2023-05-17T05:22:07;102816.66;;;10.95;80.49
59337;BME280;45115;52.002;4.686;2023-05-17T05:24:36;102816.44;;;10.98;81.03
59337;BME280;45115;52.002;4.686;2023-05-17T05:27:04;102816.81;;;11.06;79.51
59337;BME280;45115;52.002;4.686;2023-05-17T05:29:31;102817.06;;;11.30;77.64
59337;BME280;45115;52.002;4.686;2023-05-17T05:31:58;102824.09;;;12.01;74.40
59337;BME280;45115;52.002;4.686;2023-05-17T05:34:24;102819.50;;;13.14;70.02
59337;BME280;45115;52.002;4.686;2023-05-17T05:36:53;102821.53;;;14.30;65.14
59337;BME280;45115;52.002;4.686;2023-05-17T05:39:20;102816.63;;;15.02;63.86
59337;BME280;45115;52.002;4.686;2023-05-17T05:41:46;102822.69;;;16.03;61.96
59337;BME280;45115;52.002;4.686;2023-05-17T05:44:14;102829.50;;;16.51;58.56
59337;BME280;45115;52.002;4.686;2023-05-17T05:46:41;102826.66;;;16.42;56.30
59337;BME280;45115;52.002;4.686;2023-05-17T05:49:08;102830.63;;;16.28;56.51
59337;BME280;45115;52.002;4.686;2023-05-17T05:51:35;102831.94;;;16.13;56.62
59337;BME280;45115;52.002;4.686;2023-05-17T05:54:02;102841.22;;;16.23;58.32
59337;BME280;45115;52.002;4.686;2023-05-17T05:56:28;102846.63;;;16.25;57.48
59337;BME280;45115;52.002;4.686;2023-05-17T05:58:56;102842.66;;;16.80;55.67
59337;BME280;45115;52.002;4.686;2023-05-17T06:01:24;102847.22;;;16.60;55.08
59337;BME280;45115;52.002;4.686;2023-05-17T06:03:53;102848.81;;;16.62;54.94
59337;BME280;45115;52.002;4.686;2023-05-17T06:06:20;102843.41;;;16.82;54.28
59337;BME280;45115;52.002;4.686;2023-05-17T06:08:46;102846.53;;;16.36;55.00
59337;BME280;45115;52.002;4.686;2023-05-17T06:11:13;102848.59;;;15.71;56.93
59337;BME280;45115;52.002;4.686;2023-05-17T06:13:40;102856.94;;;15.91;55.81
59337;BME280;45115;52.002;4.686;2023-05-17T06:16:06;102846.44;;;15.74;57.42
59337;BME280;45115;52.002;4.686;2023-05-17T06:18:34;102847.28;;;16.49;54.64
59337;BME280;45115;52.002;4.686;2023-05-17T06:21:01;102844.94;;;15.59;56.92
59337;BME280;45115;52.002;4.686;2023-05-17T06:23:27;102851.13;;;15.07;58.25
59337;BME280;45115;52.002;4.686;2023-05-17T06:25:54;102854.63;;;14.07;61.84
59337;BME280;45115;52.002;4.686;2023-05-17T06:28:21;102870.47;;;13.20;64.20
59337;BME280;45115;52.002;4.686;2023-05-17T06:30:47;102874.34;;;13.05;65.98
59337;BME280;45115;52.002;4.686;2023-05-17T06:33:14;102872.78;;;13.01;65.56
59337;BME280;45115;52.002;4.686;2023-05-17T06:35:42;102874.78;;;14.07;61.02
59337;BME280;45115;52.002;4.686;2023-05-17T06:38:09;102874.66;;;13.62;63.88
59337;BME280;45115;52.002;4.686;2023-05-17T06:40:35;102864.00;;;13.81;63.12
59337;BME280;45115;52.002;4.686;2023-05-17T06:43:02;102870.66;;;14.82;61.10
59337;BME280;45115;52.002;4.686;2023-05-17T06:45:29;102868.41;;;14.87;61.65
59337;BME280;45115;52.002;4.686;2023-05-17T06:47:56;102869.44;;;15.19;58.39
59337;BME280;45115;52.002;4.686;2023-05-17T06:50:23;102872.78;;;16.21;54.83
59337;BME280;45115;52.002;4.686;2023-05-17T06:52:52;102871.56;;;17.17;52.38
59337;BME280;45115;52.002;4.686;2023-05-17T06:55:19;102858.03;;;17.53;51.48
59337;BME280;45115;52.002;4.686;2023-05-17T06:57:46;102865.91;;;18.17;46.37
59337;BME280;45115;52.002;4.686;2023-05-17T07:00:14;102867.75;;;17.68;46.50
59337;BME280;45115;52.002;4.686;2023-05-17T07:02:40;102873.28;;;17.68;46.39
59337;BME280;45115;52.002;4.686;2023-05-17T07:05:07;102880.75;;;17.87;44.49
59337;BME280;45115;52.002;4.686;2023-05-17T07:07:34;102882.69;;;17.96;44.22
59337;BME280;45115;52.002;4.686;2023-05-17T07:10:02;102880.84;;;17.36;46.50
59337;BME280;45115;52.002;4.686;2023-05-17T07:12:29;102890.31;;;16.62;49.21
59337;BME280;45115;52.002;4.686;2023-05-17T07:14:56;102886.66;;;16.62;49.81
59337;BME280;45115;52.002;4.686;2023-05-17T07:17:23;102889.19;;;16.86;49.73
59337;BME280;45115;52.002;4.686;2023-05-17T07:19:49;102896.72;;;17.25;45.88
59337;BME280;45115;52.002;4.686;2023-05-17T07:22:16;102891.06;;;17.36;45.16
59337;BME280;45115;52.002;4.686;2023-05-17T07:24:43;102888.00;;;18.47;44.82
59337;BME280;45115;52.002;4.686;2023-05-17T07:27:11;102888.81;;;18.00;44.74
59337;BME280;45115;52.002;4.686;2023-05-17T07:29:38;102890.44;;;17.32;47.89
59337;BME280;45115;52.002;4.686;2023-05-17T07:32:06;102894.50;;;17.49;49.46
59337;BME280;45115;52.002;4.686;2023-05-17T07:34:33;102890.78;;;17.39;47.74
59337;BME280;45115;52.002;4.686;2023-05-17T07:37:00;102900.25;;;16.86;49.06
59337;BME280;45115;52.002;4.686;2023-05-17T07:39:27;102891.81;;;16.87;48.00
59337;BME280;45115;52.002;4.686;2023-05-17T07:41:53;102892.53;;;17.40;45.24
59337;BME280;45115;52.002;4.686;2023-05-17T07:44:21;102918.66;;;17.17;44.91
59337;BME280;45115;52.002;4.686;2023-05-17T07:46:48;102913.06;;;16.87;42.92
59337;BME280;45115;52.002;4.686;2023-05-17T07:49:15;102915.56;;;16.69;44.56
59337;BME280;45115;52.002;4.686;2023-05-17T07:51:42;102908.41;;;16.87;44.64
59337;BME280;45115;52.002;4.686;2023-05-17T07:54:09;102912.63;;;17.32;43.45
59337;BME280;45115;52.002;4.686;2023-05-17T07:56:35;102915.09;;;18.05;42.91
59337;BME280;45115;52.002;4.686;2023-05-17T07:59:02;102910.59;;;17.64;42.82
59337;BME280;45115;52.002;4.686;2023-05-17T08:01:30;102909.84;;;16.61;46.31
59337;BME280;45115;52.002;4.686;2023-05-17T08:03:56;102914.97;;;16.65;46.39
59337;BME280;45115;52.002;4.686;2023-05-17T08:06:23;102927.03;;;17.06;46.67
59337;BME280;45115;52.002;4.686;2023-05-17T08:08:50;102920.25;;;16.37;47.87
59337;BME280;45115;52.002;4.686;2023-05-17T08:11:16;102925.16;;;15.91;48.62
59337;BME280;45115;52.002;4.686;2023-05-17T08:13:43;102925.78;;;16.37;47.74
59337;BME280;45115;52.002;4.686;2023-05-17T08:16:09;102929.09;;;15.55;50.23
59337;BME280;45115;52.002;4.686;2023-05-17T08:18:38;102932.75;;;15.44;49.92
59337;BME280;45115;52.002;4.686;2023-05-17T08:21:04;102936.25;;;15.69;49.16
59337;BME280;45115;52.002;4.686;2023-05-17T08:23:31;102940.69;;;15.03;50.39
59337;BME280;45115;52.002;4.686;2023-05-17T08:25:58;102938.00;;;15.81;50.25
59337;BME280;45115;52.002;4.686;2023-05-17T08:28:25;102936.22;;;15.35;52.41
59337;BME280;45115;52.002;4.686;2023-05-17T08:30:52;102942.81;;;16.10;50.94
59337;BME280;45115;52.002;4.686;2023-05-17T08:33:19;102935.50;;;16.84;47.98
59337;BME280;45115;52.002;4.686;2023-05-17T08:35:48;102929.44;;;16.26;45.51
59337;BME280;45115;52.002;4.686;2023-05-17T08:38:14;102938.41;;;16.82;46.80
59337;BME280;45115;52.002;4.686;2023-05-17T08:40:41;102929.91;;;15.89;47.66
59337;BME280;45115;52.002;4.686;2023-05-17T08:43:10;102935.97;;;15.72;47.60
59337;BME280;45115;52.002;4.686;2023-05-17T08:45:37;102933.56;;;16.00;47.68
59337;BME280;45115;52.002;4.686;2023-05-17T08:48:05;102929.19;;;15.87;49.21
59337;BME280;45115;52.002;4.686;2023-05-17T08:50:33;102940.25;;;15.64;49.32
59337;BME280;45115;52.002;4.686;2023-05-17T08:53:01;102928.59;;;16.57;47.62
59337;BME280;45115;52.002;4.686;2023-05-17T08:55:30;102939.56;;;16.16;49.01
59337;BME280;45115;52.002;4.686;2023-05-17T08:57:59;102945.16;;;16.26;49.11
59337;BME280;45115;52.002;4.686;2023-05-17T09:00:26;102928.34;;;16.18;47.88
59337;BME280;45115;52.002;4.686;2023-05-17T09:02:53;102929.78;;;16.33;47.58
59337;BME280;45115;52.002;4.686;2023-05-17T09:05:19;102934.94;;;16.69;45.81
59337;BME280;45115;52.002;4.686;2023-05-17T09:07:47;102932.25;;;16.99;46.48
59337;BME280;45115;52.002;4.686;2023-05-17T09:10:15;102937.09;;;16.65;46.51
59337;BME280;45115;52.002;4.686;2023-05-17T09:12:43;102940.16;;;16.83;45.28
59337;BME280;45115;52.002;4.686;2023-05-17T09:15:14;102937.94;;;16.77;47.11
59337;BME280;45115;52.002;4.686;2023-05-17T09:17:41;102934.75;;;17.02;46.50
59337;BME280;45115;52.002;4.686;2023-05-17T09:20:08;102939.06;;;16.54;45.47
59337;BME280;45115;52.002;4.686;2023-05-17T09:22:35;102944.59;;;16.43;45.37
59337;BME280;45115;52.002;4.686;2023-05-17T09:25:03;102937.03;;;16.56;46.08
59337;BME280;45115;52.002;4.686;2023-05-17T09:27:31;102937.31;;;15.99;46.91
59337;BME280;45115;52.002;4.686;2023-05-17T09:30:00;102938.78;;;16.57;44.42
59337;BME280;45115;52.002;4.686;2023-05-17T09:32:27;102947.22;;;16.76;43.86
59337;BME280;45115;52.002;4.686;2023-05-17T09:34:54;102941.56;;;16.46;43.57
59337;BME280;45115;52.002;4.686;2023-05-17T09:37:22;102935.16;;;16.45;40.99
59337;BME280;45115;52.002;4.686;2023-05-17T09:39:48;102943.38;;;16.67;43.53
59337;BME280;45115;52.002;4.686;2023-05-17T09:42:15;102944.94;;;16.18;46.06
59337;BME280;45115;52.002;4.686;2023-05-17T09:44:49;102938.16;;;16.53;44.56
59337;BME280;45115;52.002;4.686;2023-05-17T09:47:25;102944.03;;;16.28;44.35
59337;BME280;45115;52.002;4.686;2023-05-17T09:49:53;102948.78;;;16.37;44.38
59337;BME280;45115;52.002;4.686;2023-05-17T09:52:22;102946.19;;;16.25;45.06
59337;BME280;45115;52.002;4.686;2023-05-17T09:54:53;102943.13;;;16.39;45.30
59337;BME280;45115;52.002;4.686;2023-05-17T09:57:21;102942.72;;;16.96;43.23
59337;BME280;45115;52.002;4.686;2023-05-17T09:59:49;102933.00;;;17.01;43.60
59337;BME280;45115;52.002;4.686;2023-05-17T10:02:20;102939.59;;;17.10;43.49
59337;BME280;45115;52.002;4.686;2023-05-17T10:04:48;102935.25;;;16.55;43.95
59337;BME280;45115;52.002;4.686;2023-05-17T10:07:17;102930.41;;;17.30;41.44
59337;BME280;45115;52.002;4.686;2023-05-17T10:09:46;102935.63;;;16.82;43.43
59337;BME280;45115;52.002;4.686;2023-05-17T10:12:15;102935.31;;;16.96;46.81
59337;BME280;45115;52.002;4.686;2023-05-17T10:14:42;102938.59;;;16.90;43.96
59337;BME280;45115;52.002;4.686;2023-05-17T10:17:12;102929.47;;;16.99;43.92
59337;BME280;45115;52.002;4.686;2023-05-17T10:19:39;102932.44;;;16.87;42.16
59337;BME280;45115;52.002;4.686;2023-05-17T10:22:06;102937.41;;;16.51;44.05
59337;BME280;45115;52.002;4.686;2023-05-17T10:24:33;102943.50;;;16.66;43.91
59337;BME280;45115;52.002;4.686;2023-05-17T10:27:02;102937.78;;;16.79;43.27
59337;BME280;45115;52.002;4.686;2023-05-17T10:29:29;102935.06;;;16.36;43.04
59337;BME280;45115;52.002;4.686;2023-05-17T10:31:57;102940.16;;;16.20;42.18
59337;BME280;45115;52.002;4.686;2023-05-17T10:34:27;102936.34;;;16.32;40.78
59337;BME280;45115;52.002;4.686;2023-05-17T10:36:55;102942.25;;;16.27;41.73
59337;BME280;45115;52.002;4.686;2023-05-17T10:39:23;102936.28;;;16.43;41.21
59337;BME280;45115;52.002;4.686;2023-05-17T10:41:52;102933.00;;;16.60;41.68
59337;BME280;45115;52.002;4.686;2023-05-17T10:44:21;102940.47;;;16.69;44.23
59337;BME280;45115;52.002;4.686;2023-05-17T10:46:53;102936.75;;;17.21;41.09
59337;BME280;45115;52.002;4.686;2023-05-17T10:49:23;102937.72;;;17.10;40.66
59337;BME280;45115;52.002;4.686;2023-05-17T10:51:53;102934.41;;;16.75;41.54
59337;BME280;45115;52.002;4.686;2023-05-17T10:54:20;102923.16;;;16.67;44.26
59337;BME280;45115;52.002;4.686;2023-05-17T10:57:04;102940.66;;;16.88;42.53
59337;BME280;45115;52.002;4.686;2023-05-17T10:59:32;102931.34;;;16.57;43.03
59337;BME280;45115;52.002;4.686;2023-05-17T11:02:01;102928.59;;;16.99;44.42
59337;BME280;45115;52.002;4.686;2023-05-17T11:04:34;102934.69;;;16.72;45.54
59337;BME280;45115;52.002;4.686;2023-05-17T11:07:23;102933.16;;;16.05;48.42
59337;BME280;45115;52.002;4.686;2023-05-17T11:09:53;102936.25;;;16.22;48.74
59337;BME280;45115;52.002;4.686;2023-05-17T11:12:29;102938.34;;;16.93;47.88
59337;BME280;45115;52.002;4.686;2023-05-17T11:14:57;102935.94;;;16.36;49.38
59337;BME280;45115;52.002;4.686;2023-05-17T11:17:25;102928.41;;;16.38;50.99
59337;BME280;45115;52.002;4.686;2023-05-17T11:20:28;102947.94;;;16.26;47.28
59337;BME280;45115;52.002;4.686;2023-05-17T11:22:58;102941.97;;;16.73;47.64
59337;BME280;45115;52.002;4.686;2023-05-17T11:25:27;102940.28;;;17.02;48.09
59337;BME280;45115;52.002;4.686;2023-05-17T11:27:53;102939.00;;;17.06;48.84
59337;BME280;45115;52.002;4.686;2023-05-17T11:30:22;102935.06;;;17.90;46.19
59337;BME280;45115;52.002;4.686;2023-05-17T11:32:52;102933.56;;;17.25;48.03
59337;BME280;45115;52.002;4.686;2023-05-17T11:35:23;102944.63;;;17.16;45.82
59337;BME280;45115;52.002;4.686;2023-05-17T11:37:51;102936.56;;;17.13;47.16
59337;BME280;45115;52.002;4.686;2023-05-17T11:40:26;102935.75;;;16.60;48.16
59337;BME280;45115;52.002;4.686;2023-05-17T11:43:09;102931.34;;;16.57;49.82
59337;BME280;45115;52.002;4.686;2023-05-17T11:45:44;102937.66;;;17.21;47.91
59337;BME280;45115;52.002;4.686;2023-05-17T11:48:13;102933.59;;;16.63;48.52
59337;BME280;45115;52.002;4.686;2023-05-17T11:50:41;102940.00;;;16.64;47.13
59337;BME280;45115;52.002;4.686;2023-05-17T11:53:09;102940.38;;;16.70;50.59
59337;BME280;45115;52.002;4.686;2023-05-17T11:55:38;102927.72;;;16.57;48.94
59337;BME280;45115;52.002;4.686;2023-05-17T11:58:07;102930.06;;;16.30;50.58
59337;BME280;45115;52.002;4.686;2023-05-17T12:00:34;102931.03;;;16.51;50.63
59337;BME280;45115;52.002;4.686;2023-05-17T12:03:15;102927.75;;;16.98;47.51
59337;BME280;45115;52.002;4.686;2023-05-17T12:05:41;102930.50;;;16.78;49.18
59337;BME280;45115;52.002;4.686;2023-05-17T12:08:08;102923.06;;;16.78;49.12
59337;BME280;45115;52.002;4.686;2023-05-17T12:10:38;102924.75;;;17.11;47.53
59337;BME280;45115;52.002;4.686;2023-05-17T12:16:58;102919.59;;;17.47;48.11
59337;BME280;45115;52.002;4.686;2023-05-17T12:19:28;102929.06;;;17.24;44.32
59337;BME280;45115;52.002;4.686;2023-05-17T12:22:05;102923.00;;;16.68;46.38
59337;BME280;45115;52.002;4.686;2023-05-17T12:24:36;102922.31;;;16.55;45.11
59337;BME280;45115;52.002;4.686;2023-05-17T12:27:05;102925.25;;;16.95;44.93
59337;BME280;45115;52.002;4.686;2023-05-17T12:29:32;102916.03;;;17.15;45.71
59337;BME280;45115;52.002;4.686;2023-05-17T12:31:59;102926.16;;;16.64;45.42
59337;BME280;45115;52.002;4.686;2023-05-17T12:34:26;102925.25;;;16.95;43.52
59337;BME280;45115;52.002;4.686;2023-05-17T12:36:54;102916.94;;;17.46;44.77
59337;BME280;45115;52.002;4.686;2023-05-17T12:39:21;102913.97;;;16.66;45.69
59337;BME280;45115;52.002;4.686;2023-05-17T12:41:49;102908.88;;;16.51;45.40
59337;BME280;45115;52.002;4.686;2023-05-17T12:44:18;102907.53;;;16.87;45.69
59337;BME280;45115;52.002;4.686;2023-05-17T12:46:46;102900.78;;;16.59;43.67
59337;BME280;45115;52.002;4.686;2023-05-17T12:49:18;102897.88;;;16.60;44.26
59337;BME280;45115;52.002;4.686;2023-05-17T12:51:47;102903.91;;;16.86;44.24
59337;BME280;45115;52.002;4.686;2023-05-17T12:54:23;102901.72;;;16.48;42.29
59337;BME280;45115;52.002;4.686;2023-05-17T12:56:51;102902.41;;;17.03;45.39
59337;BME280;45115;52.002;4.686;2023-05-17T12:59:19;102908.34;;;16.98;43.64
59337;BME280;45115;52.002;4.686;2023-05-17T13:01:50;102900.69;;;17.32;43.07